Time;durP1;ratioP1;P1;durP2;ratioP2;P2;SDS_P1;SDS_P2;PMS_P1;PMS_P2;Temp;Humidity;BMP_temperature;BMP_pressure;BME280_temperature;BME280_humidity;BME280_pressure;Samples;Min_cycle;Max_cycle;Signal;HPM_P1;HPM_P2
2021/08/23 00:00:23;;;;;;;12.25;8.20;;;15.20;99.90;;;;;;5053473;28;20056;-75
2021/08/23 00:02:49;;;;;;;12.48;7.90;;;15.20;99.90;;;;;;5066704;28;20021;-75
2021/08/23 00:05:15;;;;;;;11.23;7.68;;;15.10;99.90;;;;;;5054871;28;20033;-75
2021/08/23 00:07:42;;;;;;;15.32;9.10;;;15.20;99.90;;;;;;5052568;28;20028;-75
2021/08/23 00:10:09;;;;;;;10.70;8.18;;;15.20;99.90;;;;;;5052600;28;20036;-75
2021/08/23 00:12:35;;;;;;;11.45;7.95;;;15.30;99.90;;;;;;5057338;28;20032;-74
2021/08/23 00:15:01;;;;;;;9.02;7.15;;;15.30;99.90;;;;;;5066057;28;20454;-74
2021/08/23 00:17:27;;;;;;;13.90;8.27;;;15.20;99.90;;;;;;5058698;28;20040;-75
2021/08/23 00:19:54;;;;;;;10.10;7.05;;;15.20;99.90;;;;;;5072440;28;20032;-75
2021/08/23 00:22:22;;;;;;;11.95;6.75;;;15.20;99.90;;;;;;5062109;28;20039;-74
2021/08/23 00:24:50;;;;;;;11.30;7.35;;;15.20;99.90;;;;;;5068085;28;20029;-75
2021/08/23 00:27:17;;;;;;;19.95;7.25;;;15.20;99.90;;;;;;5050896;28;20036;-75
2021/08/23 00:29:47;;;;;;;10.88;7.65;;;15.00;99.90;;;;;;5052654;28;20029;-75
2021/08/23 00:32:14;;;;;;;13.18;6.80;;;15.00;99.90;;;;;;5052318;28;20025;-74
2021/08/23 00:34:41;;;;;;;10.00;6.15;;;14.90;99.90;;;;;;5050908;28;20041;-75
2021/08/23 00:37:07;;;;;;;12.25;5.75;;;14.80;99.90;;;;;;5053781;28;20032;-74
2021/08/23 00:39:35;;;;;;;17.02;7.72;;;14.70;99.90;;;;;;5051516;28;20033;-74
2021/08/23 00:42:04;;;;;;;10.95;7.72;;;14.60;99.90;;;;;;5052122;28;20052;-74
2021/08/23 00:44:37;;;;;;;14.70;8.02;;;14.60;99.90;;;;;;5053057;28;20028;-74
2021/08/23 00:47:09;;;;;;;11.35;8.38;;;14.60;99.90;;;;;;5054357;28;20454;-74
2021/08/23 00:49:36;;;;;;;12.38;8.27;;;14.50;99.90;;;;;;5056067;28;20025;-73
2021/08/23 00:52:04;;;;;;;14.18;7.80;;;14.50;99.90;;;;;;5067140;28;20032;-74
2021/08/23 00:54:31;;;;;;;13.65;7.80;;;14.40;99.90;;;;;;5058845;28;20032;-74
2021/08/23 00:56:58;;;;;;;12.43;7.38;;;14.40;99.90;;;;;;5059474;28;20033;-73
2021/08/23 00:59:26;;;;;;;15.15;8.88;;;14.30;99.90;;;;;;5059507;28;20029;-74
2021/08/23 01:02:10;;;;;;;14.48;8.55;;;14.30;99.90;;;;;;5051275;28;20051;-73
2021/08/23 01:04:42;;;;;;;12.35;7.93;;;14.30;99.90;;;;;;5049960;28;20025;-74
2021/08/23 01:07:12;;;;;;;16.33;8.48;;;14.30;99.90;;;;;;5052979;28;20032;-74
2021/08/23 01:09:42;;;;;;;13.27;9.05;;;14.30;99.90;;;;;;5050184;28;20029;-74
2021/08/23 01:12:11;;;;;;;12.02;7.53;;;14.20;99.90;;;;;;5067357;28;20039;-74
2021/08/23 01:14:37;;;;;;;14.77;8.00;;;14.20;99.90;;;;;;5055909;28;20033;-75
2021/08/23 01:17:04;;;;;;;15.85;7.53;;;14.20;99.90;;;;;;5068206;28;20052;-75
2021/08/23 01:19:31;;;;;;;12.85;8.43;;;14.20;99.90;;;;;;5071590;28;20028;-75
2021/08/23 01:22:01;;;;;;;13.88;8.25;;;14.20;99.90;;;;;;5057684;28;20033;-74
2021/08/23 01:24:30;;;;;;;12.18;8.27;;;14.20;99.90;;;;;;5058663;28;20409;-75
2021/08/23 01:26:58;;;;;;;15.90;8.45;;;14.20;99.90;;;;;;5089128;28;20385;-75
2021/08/23 01:29:39;;;;;;;13.05;8.30;;;14.20;99.90;;;;;;5053213;28;20033;-74
2021/08/23 01:32:12;;;;;;;;;;;14.30;99.90;;;;;;5052606;28;20040;-75
2021/08/23 01:34:39;;;;;;;16.02;8.38;;;14.40;99.90;;;;;;5064804;28;19939;-75
2021/08/23 01:37:06;;;;;;;13.30;8.80;;;14.40;99.90;;;;;;5066368;28;20045;-75
2021/08/23 01:39:35;;;;;;;16.92;9.85;;;14.40;99.90;;;;;;5054014;28;20035;-75
2021/08/23 01:42:02;;;;;;;17.02;9.07;;;14.50;99.90;;;;;;5061894;28;20036;-74
2021/08/23 01:44:28;;;;;;;16.10;8.35;;;14.50;99.90;;;;;;5069153;28;20131;-75
2021/08/23 01:46:54;;;;;;;16.92;8.40;;;14.60;99.90;;;;;;5050633;28;20139;-75
2021/08/23 01:49:20;;;;;;;12.23;8.55;;;14.60;99.90;;;;;;5050736;28;20045;-75
2021/08/23 01:51:46;;;;;;;13.95;7.70;;;14.60;99.90;;;;;;5063167;28;20037;-75
2021/08/23 01:54:12;;;;;;;13.60;8.07;;;14.60;99.90;;;;;;5067750;28;20029;-75
2021/08/23 01:56:39;;;;;;;13.63;9.02;;;14.60;99.90;;;;;;5066328;28;20051;-75
2021/08/23 01:59:05;;;;;;;14.13;8.40;;;14.60;99.90;;;;;;5054847;28;20389;-75
2021/08/23 02:01:32;;;;;;;12.70;8.63;;;14.60;99.90;;;;;;5062459;28;20031;-75
2021/08/23 02:03:59;;;;;;;13.48;8.57;;;14.70;99.90;;;;;;5064565;28;20037;-75
2021/08/23 02:06:26;;;;;;;16.00;9.45;;;14.70;99.90;;;;;;5072935;28;20025;-76
2021/08/23 02:08:53;;;;;;;12.43;8.48;;;14.70;99.90;;;;;;5060210;28;20454;-75
2021/08/23 02:11:24;;;;;;;11.95;9.10;;;14.70;99.90;;;;;;5054464;28;20025;-75
2021/08/23 02:13:53;;;;;;;14.82;8.73;;;14.80;99.90;;;;;;5070066;28;20371;-75
2021/08/23 02:16:20;;;;;;;11.88;8.30;;;14.70;99.90;;;;;;5063032;28;20032;-75
2021/08/23 02:18:46;;;;;;;13.80;9.20;;;14.80;99.90;;;;;;5058741;28;20024;-76
2021/08/23 02:21:13;;;;;;;14.27;8.55;;;14.70;99.90;;;;;;5054783;28;20029;-75
2021/08/23 02:23:41;;;;;;;14.23;9.23;;;14.70;99.90;;;;;;5054158;28;20056;-75
2021/08/23 02:26:07;;;;;;;14.57;9.05;;;14.70;99.90;;;;;;5070376;28;20024;-75
2021/08/23 02:28:33;;;;;;;14.07;9.38;;;14.70;99.90;;;;;;5063361;28;20029;-75
2021/08/23 02:30:59;;;;;;;14.07;8.98;;;14.80;99.90;;;;;;5054640;28;20029;-75
2021/08/23 02:33:26;;;;;;;15.40;8.68;;;14.80;99.90;;;;;;5054191;28;20545;-75
2021/08/23 02:35:52;;;;;;;13.18;7.95;;;14.90;99.90;;;;;;5065172;28;20462;-75
2021/08/23 02:38:18;;;;;;;13.73;8.25;;;14.90;99.90;;;;;;5065229;28;20040;-75
2021/08/23 02:40:44;;;;;;;10.35;7.47;;;14.90;99.90;;;;;;5058913;28;20028;-75
2021/08/23 02:43:10;;;;;;;12.23;7.10;;;14.90;99.90;;;;;;5066958;28;20025;-75
2021/08/23 02:45:37;;;;;;;8.98;6.57;;;14.90;99.90;;;;;;5055809;28;20044;-75
2021/08/23 02:48:03;;;;;;;11.52;7.70;;;14.90;99.90;;;;;;5054280;28;20029;-75
2021/08/23 02:50:29;;;;;;;11.13;7.28;;;14.90;99.90;;;;;;5053874;28;20359;-75
2021/08/23 02:52:55;;;;;;;10.10;8.38;;;14.90;99.90;;;;;;5054883;28;20029;-75
2021/08/23 02:55:22;;;;;;;10.48;7.00;;;14.90;99.90;;;;;;5053606;28;20028;-75
2021/08/23 02:57:48;;;;;;;9.82;7.20;;;15.00;99.90;;;;;;5054240;28;20032;-74
2021/08/23 03:00:15;;;;;;;9.52;7.15;;;15.00;99.90;;;;;;5054163;28;20461;-75
2021/08/23 03:02:41;;;;;;;10.18;7.47;;;15.00;99.90;;;;;;5069300;28;20021;-75
2021/08/23 03:05:08;;;;;;;10.18;6.90;;;15.10;99.90;;;;;;5060752;28;20036;-75
2021/08/23 03:07:34;;;;;;;10.90;7.03;;;15.10;99.90;;;;;;5056921;28;20036;-76
2021/08/23 03:10:00;;;;;;;11.45;6.18;;;15.00;99.90;;;;;;5062990;28;20024;-75
2021/08/23 03:12:26;;;;;;;16.10;7.03;;;15.00;99.90;;;;;;5056909;28;20040;-76
2021/08/23 03:14:53;;;;;;;13.48;7.05;;;15.00;99.90;;;;;;5077793;28;20016;-75
2021/08/23 03:17:20;;;;;;;9.68;7.05;;;15.00;99.90;;;;;;5082820;28;20035;-77
2021/08/23 03:19:46;;;;;;;10.80;7.40;;;15.00;99.90;;;;;;5062893;28;20029;-75
2021/08/23 03:22:13;;;;;;;11.25;7.63;;;15.00;99.90;;;;;;5063169;28;20037;-75
2021/08/23 03:24:39;;;;;;;12.60;8.35;;;15.00;99.90;;;;;;5054078;28;20033;-76
2021/08/23 03:27:05;;;;;;;13.35;7.13;;;15.00;99.90;;;;;;5054622;28;20032;-76
2021/08/23 03:29:31;;;;;;;11.27;7.28;;;15.10;99.90;;;;;;5071904;28;20036;-74
2021/08/23 03:31:57;;;;;;;9.85;7.78;;;15.10;99.90;;;;;;5066620;28;20025;-74
2021/08/23 03:34:23;;;;;;;12.35;6.95;;;15.00;99.90;;;;;;5055857;28;20545;-74
2021/08/23 03:36:50;;;;;;;12.27;7.82;;;15.10;99.90;;;;;;5053902;28;20043;-74
2021/08/23 03:39:16;;;;;;;11.93;7.53;;;15.10;99.90;;;;;;5063702;28;20032;-74
2021/08/23 03:41:43;;;;;;;15.80;7.68;;;15.10;99.90;;;;;;5052644;28;20048;-74
2021/08/23 03:44:09;;;;;;;10.70;6.95;;;15.10;99.90;;;;;;5054058;28;20369;-75
2021/08/23 03:46:36;;;;;;;12.40;8.05;;;15.10;99.90;;;;;;5061964;28;20092;-74
2021/08/23 03:49:04;;;;;;;9.88;7.57;;;15.10;99.90;;;;;;5053921;28;20462;-75
2021/08/23 03:51:30;;;;;;;10.95;7.85;;;15.10;99.90;;;;;;5053499;28;20025;-74
2021/08/23 03:53:57;;;;;;;13.20;7.43;;;15.10;99.90;;;;;;5056147;28;20028;-76
2021/08/23 03:56:23;;;;;;;17.00;8.52;;;15.10;99.90;;;;;;5059975;28;20028;-75
2021/08/23 03:58:50;;;;;;;12.27;7.13;;;15.20;99.90;;;;;;5053115;28;20029;-74
2021/08/23 04:01:17;;;;;;;11.35;7.18;;;15.10;99.90;;;;;;5053172;28;20049;-75
2021/08/23 04:03:43;;;;;;;12.32;7.75;;;15.10;99.90;;;;;;5063513;28;20040;-74
2021/08/23 04:06:12;;;;;;;12.90;7.43;;;15.10;99.90;;;;;;5066138;28;20028;-75
2021/08/23 04:08:39;;;;;;;10.35;7.70;;;15.10;99.90;;;;;;5062912;28;20032;-75
2021/08/23 04:11:05;;;;;;;15.27;8.02;;;15.00;99.90;;;;;;5066517;28;20044;-75
2021/08/23 04:13:32;;;;;;;12.15;8.05;;;15.00;99.90;;;;;;5052283;28;20025;-74
2021/08/23 04:16:00;;;;;;;14.52;8.52;;;15.00;99.90;;;;;;5052330;28;20048;-75
2021/08/23 04:18:27;;;;;;;13.80;8.55;;;15.00;99.90;;;;;;5067387;28;20036;-74
2021/08/23 04:20:53;;;;;;;12.30;8.57;;;15.00;99.90;;;;;;5058569;28;20024;-74
2021/08/23 04:23:20;;;;;;;13.45;8.15;;;15.00;99.90;;;;;;5057208;28;20469;-74
2021/08/23 04:25:46;;;;;;;11.68;8.30;;;15.00;99.90;;;;;;5054139;28;20021;-75
2021/08/23 04:28:13;;;;;;;10.38;7.72;;;15.00;99.90;;;;;;5063651;28;20092;-74
2021/08/23 04:30:39;;;;;;;15.35;9.57;;;14.90;99.90;;;;;;5060175;28;20028;-75
2021/08/23 04:33:05;;;;;;;12.23;8.82;;;14.90;99.90;;;;;;5058601;28;20037;-75
2021/08/23 04:35:31;;;;;;;16.90;8.75;;;14.90;99.90;;;;;;5066835;28;20040;-75
2021/08/23 04:37:57;;;;;;;10.93;7.97;;;14.90;99.90;;;;;;5051901;28;20032;-75
2021/08/23 04:40:23;;;;;;;16.00;9.13;;;14.90;99.90;;;;;;5051664;28;20033;-76
2021/08/23 04:42:50;;;;;;;15.55;8.35;;;14.90;99.90;;;;;;5052431;28;20025;-75
2021/08/23 04:45:16;;;;;;;13.05;8.75;;;14.90;99.90;;;;;;5052205;28;20458;-75
2021/08/23 04:47:42;;;;;;;11.35;7.88;;;14.90;99.90;;;;;;5053068;28;20025;-75
2021/08/23 04:50:09;;;;;;;12.43;8.38;;;15.00;99.90;;;;;;5057467;28;20036;-75
2021/08/23 04:52:42;;;;;;;15.45;9.70;;;15.00;99.90;;;;;;5052899;28;20025;-75
2021/08/23 04:55:10;;;;;;;15.20;8.80;;;15.00;99.90;;;;;;5063914;28;20028;-75
2021/08/23 04:57:36;;;;;;;13.82;8.90;;;15.10;99.90;;;;;;5067002;28;20045;-75
2021/08/23 05:00:06;;;;;;;13.82;10.40;;;15.10;99.90;;;;;;5051348;28;20049;-74
2021/08/23 05:02:32;;;;;;;12.53;8.83;;;15.20;99.90;;;;;;5052348;28;20033;-75
2021/08/23 05:04:59;;;;;;;11.07;8.50;;;15.20;99.90;;;;;;5053376;28;20043;-75
2021/08/23 05:07:25;;;;;;;14.40;8.45;;;15.30;99.90;;;;;;5051517;28;20036;-75
2021/08/23 05:09:51;;;;;;;11.82;7.80;;;15.30;99.90;;;;;;5052574;28;20041;-75
2021/08/23 05:12:18;;;;;;;11.98;8.02;;;15.40;99.90;;;;;;5056018;28;20021;-75
2021/08/23 05:14:44;;;;;;;10.93;7.70;;;15.40;99.90;;;;;;5051826;28;20072;-75
2021/08/23 05:17:10;;;;;;;10.02;7.72;;;15.40;99.90;;;;;;5065860;28;20020;-75
2021/08/23 05:19:36;;;;;;;10.77;7.43;;;15.40;99.90;;;;;;5062068;28;20032;-75
2021/08/23 05:22:03;;;;;;;14.65;9.15;;;15.40;99.90;;;;;;5052752;28;20080;-75
2021/08/23 05:24:29;;;;;;;11.68;8.13;;;15.50;99.90;;;;;;5051286;28;20040;-75
2021/08/23 05:26:55;;;;;;;12.35;7.82;;;15.60;99.90;;;;;;5051793;28;20036;-75
2021/08/23 05:29:21;;;;;;;11.82;7.97;;;15.70;99.90;;;;;;5061634;28;20032;-76
2021/08/23 05:31:47;;;;;;;9.93;7.95;;;15.70;99.90;;;;;;5075631;28;20047;-75
2021/08/23 05:34:14;;;;;;;14.32;6.93;;;15.80;99.90;;;;;;5060260;28;20049;-76
2021/08/23 05:36:40;;;;;;;11.32;7.53;;;15.80;99.90;;;;;;5055734;28;20037;-76
2021/08/23 05:39:07;;;;;;;12.90;7.53;;;15.80;99.90;;;;;;5063700;28;20033;-75
2021/08/23 05:41:33;;;;;;;13.75;8.07;;;15.80;99.90;;;;;;5054916;28;20025;-75
2021/08/23 05:43:59;;;;;;;11.55;6.43;;;15.80;99.90;;;;;;5055942;28;20036;-76
2021/08/23 05:46:25;;;;;;;10.18;7.07;;;15.80;99.90;;;;;;5064602;28;20032;-76
2021/08/23 05:48:51;;;;;;;10.25;7.38;;;15.80;99.90;;;;;;5059805;28;20021;-76
2021/08/23 05:51:18;;;;;;;11.32;7.18;;;15.90;99.90;;;;;;5045331;28;20039;-75
2021/08/23 05:53:45;;;;;;;10.88;7.88;;;15.90;99.90;;;;;;5072118;28;20024;-75
2021/08/23 05:56:12;;;;;;;9.68;6.82;;;16.00;99.90;;;;;;5061927;28;20032;-75
2021/08/23 05:58:38;;;;;;;10.82;7.90;;;16.00;99.90;;;;;;5066373;28;20123;-75
2021/08/23 06:01:05;;;;;;;12.55;8.27;;;16.10;99.90;;;;;;5056707;28;20029;-76
2021/08/23 06:03:33;;;;;;;13.70;7.30;;;16.20;99.90;;;;;;5054885;28;20048;-76
2021/08/23 06:06:06;;;;;;;13.18;7.18;;;16.20;99.90;;;;;;5037637;28;20053;-76
2021/08/23 06:08:34;;;;;;;7.47;6.15;;;16.30;99.90;;;;;;5058619;28;20037;-76
2021/08/23 06:11:01;;;;;;;9.98;7.20;;;16.40;99.90;;;;;;5065276;28;20052;-76
2021/08/23 06:13:28;;;;;;;10.32;6.80;;;16.50;99.90;;;;;;5054169;28;20458;-77
2021/08/23 06:15:55;;;;;;;11.13;6.53;;;16.70;99.90;;;;;;5054875;28;20458;-76
2021/08/23 06:18:24;;;;;;;9.32;5.90;;;16.90;99.90;;;;;;5070407;28;20028;-75
2021/08/23 06:20:50;;;;;;;8.48;6.15;;;17.00;99.90;;;;;;5069124;28;20037;-75
2021/08/23 06:23:17;;;;;;;10.38;5.32;;;16.90;99.90;;;;;;5067297;28;20033;-75
2021/08/23 06:25:45;;;;;;;7.93;6.07;;;16.90;99.90;;;;;;5055903;28;20021;-75
2021/08/23 06:28:11;;;;;;;10.43;6.57;;;16.80;99.90;;;;;;5060213;28;20048;-74
2021/08/23 06:30:37;;;;;;;8.98;5.72;;;16.80;99.90;;;;;;5057287;28;20024;-75
2021/08/23 06:33:03;;;;;;;7.70;6.53;;;16.90;99.90;;;;;;5054494;28;20029;-75
2021/08/23 06:35:30;;;;;;;10.20;6.50;;;17.20;99.90;;;;;;5054915;28;20041;-75
2021/08/23 06:37:56;;;;;;;7.78;6.00;;;17.30;99.90;;;;;;5062149;28;20025;-75
2021/08/23 06:40:22;;;;;;;8.52;6.10;;;17.60;99.90;;;;;;5053676;28;20471;-75
2021/08/23 06:42:48;;;;;;;7.05;6.18;;;17.60;99.90;;;;;;5057870;28;20039;-75
2021/08/23 06:45:14;;;;;;;12.85;6.72;;;17.60;99.90;;;;;;5067485;28;20485;-75
2021/08/23 06:47:41;;;;;;;10.27;5.18;;;17.70;99.90;;;;;;5061786;28;20044;-75
2021/08/23 06:50:07;;;;;;;9.68;5.85;;;17.80;99.90;;;;;;5059821;28;20025;-75
2021/08/23 06:52:34;;;;;;;6.60;5.10;;;17.70;99.90;;;;;;5067349;28;20029;-76
2021/08/23 06:55:00;;;;;;;7.22;6.30;;;17.70;99.90;;;;;;5055050;28;20430;-74
2021/08/23 06:57:26;;;;;;;10.70;6.18;;;17.70;99.90;;;;;;5056469;28;20044;-75
2021/08/23 06:59:52;;;;;;;11.27;5.82;;;17.80;99.90;;;;;;5068930;28;20025;-75
2021/08/23 07:02:19;;;;;;;9.85;5.47;;;17.80;99.90;;;;;;5058569;28;20032;-75
2021/08/23 07:04:49;;;;;;;6.95;4.72;;;18.00;99.90;;;;;;5053113;28;20045;-76
2021/08/23 07:07:17;;;;;;;9.27;7.05;;;17.90;99.90;;;;;;5060973;28;20029;-70
2021/08/23 07:09:43;;;;;;;9.35;5.63;;;18.00;99.90;;;;;;5053098;28;20052;-76
2021/08/23 07:12:10;;;;;;;8.30;5.82;;;18.20;99.90;;;;;;5053393;28;20036;-75
2021/08/23 07:14:37;;;;;;;7.93;5.93;;;18.40;99.90;;;;;;5055828;28;20021;-76
2021/08/23 07:17:05;;;;;;;11.43;5.80;;;18.40;99.90;;;;;;5058882;28;20026;-75
2021/08/23 07:19:32;;;;;;;9.25;5.95;;;18.50;99.90;;;;;;5053090;28;20085;-75
2021/08/23 07:21:58;;;;;;;7.85;6.13;;;18.50;99.90;;;;;;5067634;28;20040;-76
2021/08/23 07:24:24;;;;;;;9.32;6.05;;;18.70;99.90;;;;;;5054305;28;20029;-76
2021/08/23 07:26:50;;;;;;;9.52;6.05;;;18.70;99.90;;;;;;5062402;28;20021;-75
2021/08/23 07:29:17;;;;;;;10.50;6.32;;;18.40;99.90;;;;;;5069496;28;20039;-76
2021/08/23 07:31:44;;;;;;;8.77;6.22;;;18.40;99.90;;;;;;5053475;28;20446;-77
2021/08/23 07:34:10;;;;;;;8.07;5.70;;;18.30;99.90;;;;;;5069844;28;20033;-76
2021/08/23 07:36:37;;;;;;;7.95;6.13;;;18.40;99.90;;;;;;5058336;28;20032;-76
2021/08/23 07:39:03;;;;;;;10.77;6.05;;;18.30;99.90;;;;;;5061986;28;20024;-75
2021/08/23 07:41:30;;;;;;;10.38;5.70;;;18.40;99.90;;;;;;5061887;28;20032;-75
2021/08/23 07:43:56;;;;;;;10.52;5.15;;;18.40;99.90;;;;;;5059556;28;20033;-76
2021/08/23 07:46:22;;;;;;;10.60;5.35;;;18.50;99.90;;;;;;5055235;28;20027;-76
2021/08/23 07:48:48;;;;;;;11.32;5.25;;;18.50;99.90;;;;;;5061408;28;20029;-76
2021/08/23 07:51:15;;;;;;;7.10;5.53;;;18.60;99.90;;;;;;5072076;28;20346;-76
2021/08/23 07:53:41;;;;;;;11.50;5.70;;;18.60;99.90;;;;;;5061598;28;20052;-76
2021/08/23 07:56:08;;;;;;;9.23;5.30;;;18.50;99.90;;;;;;5055123;28;20059;-76
2021/08/23 07:58:35;;;;;;;9.07;5.20;;;18.60;99.90;;;;;;5062149;28;20024;-75
2021/08/23 08:01:02;;;;;;;8.13;5.93;;;18.80;99.90;;;;;;5059896;28;20032;-74
2021/08/23 08:03:28;;;;;;;9.27;5.20;;;18.70;99.90;;;;;;5053372;28;20029;-76
2021/08/23 08:05:55;;;;;;;7.75;5.32;;;18.70;99.90;;;;;;5059748;28;20024;-77
2021/08/23 08:08:21;;;;;;;8.45;5.35;;;18.80;99.90;;;;;;5052977;28;20374;-77
2021/08/23 08:10:47;;;;;;;8.77;5.20;;;18.80;99.90;;;;;;5052287;28;20040;-78
2021/08/23 08:13:14;;;;;;;7.53;5.32;;;18.90;99.90;;;;;;5052627;28;20021;-77
2021/08/23 08:15:40;;;;;;;8.00;4.85;;;18.90;99.90;;;;;;5055372;28;20033;-77
2021/08/23 08:18:06;;;;;;;7.47;4.90;;;18.90;99.90;;;;;;5061315;28;20044;-76
2021/08/23 08:20:33;;;;;;;9.40;5.97;;;19.00;99.90;;;;;;5069051;28;20028;-77
2021/08/23 08:23:00;;;;;;;10.48;6.30;;;19.00;99.90;;;;;;5052457;28;20359;-75
2021/08/23 08:25:26;;;;;;;8.52;5.38;;;19.10;99.90;;;;;;5068529;28;20043;-76
2021/08/23 08:27:52;;;;;;;8.70;5.65;;;19.20;99.90;;;;;;5070046;28;20036;-76
2021/08/23 08:30:20;;;;;;;8.45;5.50;;;19.20;99.90;;;;;;5068358;28;20044;-76
2021/08/23 08:32:47;;;;;;;10.10;5.50;;;19.40;99.90;;;;;;5061442;28;20025;-76
2021/08/23 08:35:14;;;;;;;7.85;5.07;;;19.40;99.90;;;;;;5051946;28;20048;-75
2021/08/23 08:37:41;;;;;;;7.53;5.30;;;19.50;99.90;;;;;;5053413;28;20027;-76
2021/08/23 08:40:09;;;;;;;10.82;5.32;;;19.40;99.90;;;;;;5052143;28;20040;-76
2021/08/23 08:42:35;;;;;;;9.30;5.72;;;19.30;99.90;;;;;;5052630;28;20040;-75
2021/08/23 08:45:02;;;;;;;6.00;5.05;;;19.30;99.90;;;;;;5051623;28;20025;-77
2021/08/23 08:47:30;;;;;;;11.68;5.47;;;19.30;99.90;;;;;;5054465;28;20369;-79
2021/08/23 08:49:59;;;;;;;10.32;4.85;;;19.30;99.90;;;;;;5055856;28;20024;-76
2021/08/23 08:52:26;;;;;;;8.05;5.50;;;19.40;99.90;;;;;;5054164;28;20370;-78
2021/08/23 08:54:52;;;;;;;11.70;5.22;;;19.60;99.90;;;;;;5052795;28;20036;-77
2021/08/23 08:57:19;;;;;;;7.38;4.57;;;19.60;99.90;;;;;;5061240;28;20044;-75
2021/08/23 08:59:45;;;;;;;8.55;5.50;;;19.50;99.90;;;;;;5063347;28;20036;-76
2021/08/23 09:02:12;;;;;;;7.00;5.07;;;19.80;99.90;;;;;;5070618;28;20044;-75
2021/08/23 09:04:39;;;;;;;9.00;5.22;;;19.90;99.90;;;;;;5056875;28;20040;-76
2021/08/23 09:07:08;;;;;;;6.47;4.93;;;19.90;99.90;;;;;;5056297;28;20029;-78
2021/08/23 09:09:36;;;;;;;6.60;4.85;;;20.00;99.90;;;;;;5075083;28;20036;-76
2021/08/23 09:12:09;;;;;;;7.22;4.28;;;20.20;99.90;;;;;;5055241;28;20029;-77
2021/08/23 09:14:55;;;;;;;9.88;4.90;;;20.20;99.90;;;;;;5056238;28;20037;-77
2021/08/23 09:17:23;;;;;;;9.52;4.65;;;20.20;98.60;;;;;;5056786;28;20029;-76
2021/08/23 09:20:02;;;;;;;6.20;3.40;;;19.70;99.10;;;;;;5068543;28;20029;-76
2021/08/23 09:22:28;;;;;;;9.60;4.43;;;19.80;99.90;;;;;;5061178;28;20033;-76
2021/08/23 09:24:54;;;;;;;7.05;4.18;;;19.80;99.50;;;;;;5055814;28;20029;-75
2021/08/23 09:27:20;;;;;;;8.00;3.88;;;20.10;98.80;;;;;;5055826;28;20033;-76
2021/08/23 09:30:02;;;;;;;439.98;67.30;;;20.30;98.00;;;;;;5055442;28;20036;-77
2021/08/23 09:32:34;;;;;;;6.15;3.28;;;21.00;97.30;;;;;;5055842;28;20459;-77
2021/08/23 09:35:01;;;;;;;5.90;3.53;;;21.50;95.40;;;;;;5056232;28;20052;-76
2021/08/23 09:37:32;;;;;;;6.88;4.05;;;21.50;94.10;;;;;;5059332;28;20032;-78
2021/08/23 09:40:12;;;;;;;4.68;3.05;;;21.30;94.80;;;;;;5074845;28;20391;-78
2021/08/23 09:42:41;;;;;;;3.70;3.13;;;20.70;94.70;;;;;;5055929;28;20037;-77
2021/08/23 09:45:17;;;;;;;5.70;3.60;;;20.60;94.70;;;;;;5056343;28;20040;-77
2021/08/23 09:47:44;;;;;;;5.57;3.70;;;21.00;95.50;;;;;;5075349;28;20377;-76
2021/08/23 09:50:18;;;;;;;5.55;3.38;;;21.40;94.20;;;;;;5055173;28;20371;-76
2021/08/23 09:52:45;;;;;;;6.03;3.25;;;21.60;94.40;;;;;;5056118;28;20025;-77
2021/08/23 09:55:12;;;;;;;6.55;3.40;;;21.40;92.90;;;;;;5056223;28;20036;-79
2021/08/23 09:57:41;;;;;;;5.75;3.65;;;21.10;93.00;;;;;;5073498;28;20047;-76
2021/08/23 10:00:12;;;;;;;7.28;3.58;;;21.00;94.00;;;;;;5072748;28;20469;-76
2021/08/23 10:02:47;;;;;;;6.20;3.15;;;21.20;93.50;;;;;;5073390;28;20039;-76
2021/08/23 10:05:19;;;;;;;4.47;3.90;;;21.40;93.20;;;;;;5067874;28;20040;-78
2021/08/23 10:07:47;;;;;;;5.63;3.33;;;21.20;92.30;;;;;;5090932;28;20059;-77
2021/08/23 10:10:14;;;;;;;4.55;3.38;;;21.30;93.10;;;;;;5071902;28;20039;-76
2021/08/23 10:12:40;;;;;;;4.95;3.42;;;21.60;92.10;;;;;;5072711;28;20028;-76
2021/08/23 10:15:07;;;;;;;5.10;3.50;;;21.70;92.70;;;;;;5068444;28;20037;-77
2021/08/23 10:17:37;;;;;;;6.20;3.08;;;22.00;90.30;;;;;;5054503;28;20040;-77
2021/08/23 10:20:05;;;;;;;5.13;3.45;;;21.80;89.90;;;;;;5055300;28;20040;-78
2021/08/23 10:22:33;;;;;;;7.65;3.92;;;22.10;91.10;;;;;;5063633;28;20037;-76
2021/08/23 10:25:01;;;;;;;6.00;3.30;;;22.10;90.50;;;;;;5061405;28;20044;-80
2021/08/23 10:27:33;;;;;;;4.95;3.50;;;22.10;90.60;;;;;;5069794;28;20036;-79
2021/08/23 10:29:59;;;;;;;4.50;3.20;;;22.60;89.40;;;;;;5063976;28;20048;-79
2021/08/23 10:32:40;;;;;;;5.97;3.33;;;23.00;89.30;;;;;;5058438;28;20041;-79
2021/08/23 10:35:16;;;;;;;5.13;3.10;;;23.30;87.20;;;;;;5055319;28;20041;-80
2021/08/23 10:37:44;;;;;;;7.35;3.75;;;22.40;87.60;;;;;;5061442;28;20497;-80
2021/08/23 10:40:11;;;;;;;4.03;3.40;;;22.40;85.50;;;;;;5055629;28;20418;-79
2021/08/23 10:42:39;;;;;;;6.13;3.53;;;22.10;84.60;;;;;;5055322;28;20041;-80
2021/08/23 10:45:10;;;;;;;5.57;3.40;;;21.90;86.90;;;;;;5065750;28;20036;-78
2021/08/23 10:47:37;;;;;;;6.40;3.50;;;21.70;85.20;;;;;;5067829;28;20029;-77
2021/08/23 10:50:06;;;;;;;5.35;3.53;;;21.60;85.60;;;;;;5057977;28;20039;-77
2021/08/23 10:52:36;;;;;;;5.97;3.38;;;21.10;87.80;;;;;;5067831;28;20028;-78
2021/08/23 10:55:07;;;;;;;7.00;4.63;;;21.10;88.20;;;;;;5076542;28;20032;-78
2021/08/23 10:57:33;;;;;;;5.45;4.05;;;21.30;87.80;;;;;;5067739;28;20089;-77
2021/08/23 11:00:11;;;;;;;5.88;3.63;;;21.50;90.10;;;;;;5055336;28;20037;-79
2021/08/23 11:02:38;;;;;;;4.68;4.18;;;21.60;89.80;;;;;;5054225;28;20386;-80
2021/08/23 11:05:12;;;;;;;5.32;4.35;;;21.80;89.30;;;;;;5055051;28;20052;-78
2021/08/23 11:07:41;;;;;;;5.20;3.45;;;21.60;89.60;;;;;;5054317;28;20029;-78
2021/08/23 11:10:09;;;;;;;9.10;5.25;;;21.60;90.10;;;;;;5060944;28;20052;-78
2021/08/23 11:12:41;;;;;;;6.63;4.57;;;21.50;89.30;;;;;;5071827;28;20036;-78
2021/08/23 11:15:24;;;;;;;9.45;4.40;;;21.20;90.30;;;;;;5069627;28;21109;-79
2021/08/23 11:17:55;;;;;;;6.45;4.97;;;21.50;90.10;;;;;;5060398;28;20059;-78
2021/08/23 11:20:28;;;;;;;6.32;4.93;;;21.30;87.70;;;;;;5065123;28;20041;-76
2021/08/23 11:23:10;;;;;;;7.75;4.80;;;21.30;89.20;;;;;;5054202;28;20048;-78
2021/08/23 11:25:41;;;;;;;6.18;4.90;;;21.30;87.60;;;;;;5053936;28;20029;-77
2021/08/23 11:28:21;;;;;;;7.47;5.22;;;21.30;88.10;;;;;;5068236;28;20048;-78
2021/08/23 11:30:49;;;;;;;9.32;5.45;;;21.60;89.20;;;;;;5059532;28;20059;-79
2021/08/23 11:33:28;;;;;;;7.40;6.13;;;21.80;88.80;;;;;;5053897;28;20032;-78
2021/08/23 11:35:55;;;;;;;7.43;6.03;;;21.80;85.10;;;;;;5053558;28;20460;-79
2021/08/23 11:38:36;;;;;;;10.82;6.47;;;21.50;87.50;;;;;;5053958;28;20040;-78
2021/08/23 11:41:03;;;;;;;8.30;5.93;;;22.10;87.60;;;;;;5053145;28;20033;-78
2021/08/23 11:43:31;;;;;;;9.18;7.05;;;22.40;84.10;;;;;;5054044;28;20049;-78
2021/08/23 11:45:59;;;;;;;9.93;8.07;;;22.20;85.40;;;;;;5064837;28;20508;-78
2021/08/23 11:48:25;;;;;;;9.38;6.88;;;22.20;83.80;;;;;;5053808;28;20033;-77
2021/08/23 11:50:53;;;;;;;9.77;7.20;;;22.30;84.90;;;;;;5060789;28;20036;-76
2021/08/23 11:53:23;;;;;;;7.75;5.72;;;22.70;85.40;;;;;;5067608;28;20040;-76
2021/08/23 11:55:50;;;;;;;6.50;4.07;;;22.60;81.70;;;;;;5061313;28;20363;-78
2021/08/23 11:58:21;;;;;;;7.10;3.60;;;22.30;80.60;;;;;;5071678;28;20330;-78
2021/08/23 12:01:02;;;;;;;5.10;2.75;;;21.90;81.90;;;;;;5070262;28;20032;-77
2021/08/23 12:03:30;;;;;;;3.75;3.00;;;22.00;80.40;;;;;;5059229;28;20033;-78
2021/08/23 12:06:31;;;;;;;5.80;3.03;;;22.00;80.70;;;;;;5053777;28;20044;-78
2021/08/23 12:09:02;;;;;;;4.40;3.75;;;21.90;79.50;;;;;;5056866;28;20055;-79
2021/08/23 12:11:43;;;;;;;5.30;3.58;;;21.80;79.20;;;;;;5073504;28;20039;-77
2021/08/23 12:14:17;;;;;;;4.47;3.78;;;21.90;80.90;;;;;;5058911;28;20115;-74
2021/08/23 12:16:44;;;;;;;7.00;3.90;;;21.90;80.70;;;;;;5057214;28;20036;-78
2021/08/23 12:19:12;;;;;;;5.75;4.40;;;22.00;81.30;;;;;;5063927;28;20033;-77
2021/08/23 12:21:39;;;;;;;1999.90;999.90;;;22.30;81.00;;;;;;5061420;28;20048;-77
2021/08/23 12:24:15;;;;;;;417.50;374.13;;;22.60;78.70;;;;;;5073306;28;20052;-78
2021/08/23 12:26:43;;;;;;;3.75;2.70;;;22.90;77.20;;;;;;5056567;28;20454;-78
2021/08/23 12:29:18;;;;;;;6.30;2.75;;;23.20;76.70;;;;;;5053780;28;20368;-78
2021/08/23 12:31:59;;;;;;;4.00;2.55;;;23.00;73.20;;;;;;5060163;28;20060;-80
2021/08/23 12:34:28;;;;;;;4.50;2.67;;;22.70;76.10;;;;;;5053374;28;20041;-79
2021/08/23 12:36:59;;;;;;;4.43;2.70;;;22.70;76.30;;;;;;5066887;28;20108;-80
2021/08/23 12:39:26;;;;;;;4.68;3.10;;;22.60;76.10;;;;;;5051951;28;20103;-78
2021/08/23 12:41:54;;;;;;;4.28;2.42;;;22.50;73.70;;;;;;5059441;28;20454;-80
2021/08/23 12:44:21;;;;;;;5.20;2.28;;;22.50;73.90;;;;;;5052640;28;20040;-79